Time;durP1;ratioP1;P1;durP2;ratioP2;P2;SDS_P1;SDS_P2;PMS_P1;PMS_P2;Temp;Humidity;BMP_temperature;BMP_pressure;BME280_temperature;BME280_humidity;BME280_pressure;Samples;Min_cycle;Max_cycle;Signal;HPM_P1;HPM_P2
2023/07/07 00:01:53;;;;;;;9.73;3.47;;;13.20;99.90;;;;;;4938653;28;220012;-69
2023/07/07 00:04:20;;;;;;;8.40;3.22;;;13.10;99.90;;;;;;5000374;28;20053;-68
2023/07/07 00:06:47;;;;;;;7.80;3.10;;;13.10;99.90;;;;;;4936674;28;218528;-68
2023/07/07 00:09:14;;;;;;;8.77;2.83;;;13.10;99.90;;;;;;5007442;28;20808;-68
2023/07/07 00:11:40;;;;;;;7.60;2.75;;;13.10;99.90;;;;;;4950403;28;211571;-68
2023/07/07 00:14:06;;;;;;;9.07;3.30;;;13.00;99.90;;;;;;5003516;28;20050;-69
2023/07/07 00:16:32;;;;;;;8.75;3.50;;;13.00;99.90;;;;;;4914912;28;209864;-69
2023/07/07 00:18:59;;;;;;;11.77;3.15;;;12.90;99.90;;;;;;4966004;28;20058;-69
2023/07/07 00:21:26;;;;;;;12.05;3.80;;;12.90;99.90;;;;;;4932930;28;209737;-69
2023/07/07 00:23:54;;;;;;;10.70;3.78;;;12.90;99.90;;;;;;4989955;28;20053;-68
2023/07/07 00:26:21;;;;;;;9.02;3.20;;;12.90;99.90;;;;;;4934373;28;213222;-70
2023/07/07 00:28:47;;;;;;;11.27;3.38;;;12.80;99.90;;;;;;4974895;28;20508;-69
2023/07/07 00:31:14;;;;;;;7.90;3.25;;;12.80;99.90;;;;;;4928410;28;207557;-70
2023/07/07 00:33:41;;;;;;;11.48;3.58;;;12.70;99.90;;;;;;5000607;28;20065;-71
2023/07/07 00:36:07;;;;;;;9.52;3.30;;;12.70;99.90;;;;;;4919225;28;215412;-71
2023/07/07 00:38:33;;;;;;;10.50;3.67;;;12.60;99.90;;;;;;5007324;28;20043;-70
2023/07/07 00:41:01;;;;;;;10.35;3.50;;;12.60;99.90;;;;;;4933363;28;223939;-71
2023/07/07 00:43:27;;;;;;;11.10;3.45;;;12.60;99.90;;;;;;4988433;28;20057;-71
2023/07/07 00:45:56;;;;;;;9.15;3.03;;;12.50;99.90;;;;;;4985584;28;216519;-69
2023/07/07 00:48:34;;;;;;;7.95;2.85;;;12.40;99.90;;;;;;4982430;28;37550;-71
2023/07/07 00:51:16;;;;;;;8.57;3.08;;;12.40;99.90;;;;;;4931264;28;212877;-69
2023/07/07 00:53:44;;;;;;;9.48;3.33;;;12.40;99.90;;;;;;4993897;28;20763;-68
2023/07/07 00:56:16;;;;;;;9.43;3.40;;;12.40;99.90;;;;;;4916240;28;207743;-68
2023/07/07 00:58:43;;;;;;;7.70;3.00;;;12.30;99.90;;;;;;5013851;28;20546;-68
2023/07/07 01:01:17;;;;;;;10.43;3.10;;;12.30;99.90;;;;;;4946021;28;215664;-69
2023/07/07 01:03:51;;;;;;;7.78;2.83;;;12.30;99.90;;;;;;5003405;28;20058;-68
2023/07/07 01:06:22;;;;;;;8.57;3.22;;;12.30;99.90;;;;;;4918611;28;213642;-68
2023/07/07 01:08:56;;;;;;;9.32;2.95;;;12.30;99.90;;;;;;4979333;28;20058;-69
2023/07/07 01:11:22;;;;;;;9.20;3.03;;;12.20;99.90;;;;;;4985581;28;20050;-69
2023/07/07 01:13:48;;;;;;;9.00;2.95;;;12.20;99.90;;;;;;4921727;28;217634;-68
2023/07/07 01:16:27;;;;;;;8.73;3.30;;;12.20;99.90;;;;;;4976880;28;20061;-68
2023/07/07 01:19:15;;;;;;;10.07;3.00;;;12.20;99.90;;;;;;4953647;28;208185;-69
2023/07/07 01:22:10;;;;;;;9.45;3.10;;;12.10;99.90;;;;;;4950570;28;207207;-68
2023/07/07 01:24:36;;;;;;;8.63;2.97;;;12.00;99.90;;;;;;4956280;28;20069;-68
2023/07/07 01:27:21;;;;;;;9.88;2.80;;;12.00;99.90;;;;;;4938178;28;207051;-68
2023/07/07 01:29:47;;;;;;;7.82;2.90;;;11.90;99.90;;;;;;4998169;28;20055;-68
2023/07/07 01:32:23;;;;;;;9.57;3.30;;;11.90;99.90;;;;;;4932402;28;218376;-69
2023/07/07 01:34:53;;;;;;;9.55;3.28;;;11.90;99.90;;;;;;5002871;28;20050;-69
2023/07/07 01:37:19;;;;;;;9.10;3.25;;;11.90;99.90;;;;;;4951172;28;227761;-69
2023/07/07 01:39:45;;;;;;;10.00;3.47;;;11.90;99.90;;;;;;5003647;28;20065;-68
2023/07/07 01:42:28;;;;;;;8.20;3.10;;;11.90;99.90;;;;;;4931947;28;215366;-68
2023/07/07 01:45:14;;;;;;;8.52;3.25;;;11.80;99.90;;;;;;5009896;28;20053;-69
2023/07/07 01:47:51;;;;;;;10.48;4.03;;;11.90;99.90;;;;;;4961370;28;213684;-68
2023/07/07 01:50:27;;;;;;;12.23;4.82;;;11.80;99.90;;;;;;5001782;28;20061;-68
2023/07/07 01:53:08;;;;;;;11.38;5.05;;;11.80;99.90;;;;;;4946922;28;210304;-69
2023/07/07 01:55:47;;;;;;;9.57;4.82;;;11.80;99.90;;;;;;4986875;28;20065;-69
2023/07/07 01:58:15;;;;;;;11.52;5.60;;;11.80;99.90;;;;;;4923370;28;210217;-69
2023/07/07 02:00:43;;;;;;;12.18;6.30;;;11.80;99.90;;;;;;4983769;28;20058;-68
2023/07/07 02:03:10;;;;;;;16.05;7.63;;;11.80;99.90;;;;;;4924526;28;209685;-69
2023/07/07 02:05:37;;;;;;;17.30;8.68;;;11.80;99.90;;;;;;4986784;28;20415;-68
2023/07/07 02:08:04;;;;;;;16.80;8.45;;;11.80;99.90;;;;;;4928305;28;210622;-69
2023/07/07 02:10:30;;;;;;;15.07;8.13;;;11.80;99.90;;;;;;4987483;28;20073;-68
2023/07/07 02:12:56;;;;;;;14.57;8.70;;;11.90;99.90;;;;;;4944726;28;206737;-71
2023/07/07 02:15:22;;;;;;;17.80;9.35;;;11.90;99.90;;;;;;4992111;28;20629;-69
2023/07/07 02:17:49;;;;;;;16.30;10.18;;;11.90;99.90;;;;;;4929941;28;206418;-69
2023/07/07 02:20:15;;;;;;;17.00;10.82;;;12.00;99.90;;;;;;4985969;28;20055;-70
2023/07/07 02:22:41;;;;;;;20.98;11.48;;;12.10;99.90;;;;;;4939269;28;210817;-69
2023/07/07 02:25:08;;;;;;;18.30;11.20;;;12.00;99.90;;;;;;4990924;28;20061;-70
2023/07/07 02:27:34;;;;;;;16.33;9.85;;;12.10;99.90;;;;;;4925747;28;210016;-69
2023/07/07 02:30:00;;;;;;;19.15;10.43;;;12.10;99.90;;;;;;4969791;28;20054;-69
2023/07/07 02:32:27;;;;;;;20.77;11.20;;;12.10;99.90;;;;;;4926819;28;212550;-70
2023/07/07 02:34:56;;;;;;;18.23;11.40;;;12.10;99.90;;;;;;4968517;28;20057;-70
2023/07/07 02:37:23;;;;;;;19.40;11.40;;;12.10;99.90;;;;;;4921091;28;209511;-69
2023/07/07 02:39:50;;;;;;;18.60;11.02;;;12.10;99.90;;;;;;4977792;28;20505;-69
2023/07/07 02:42:16;;;;;;;19.27;11.00;;;12.10;99.90;;;;;;4934583;28;215383;-69
2023/07/07 02:44:42;;;;;;;17.80;11.68;;;12.10;99.90;;;;;;4988949;28;20057;-69
2023/07/07 02:47:09;;;;;;;16.67;10.77;;;12.00;99.90;;;;;;4939300;28;208257;-69
2023/07/07 02:49:35;;;;;;;17.77;11.55;;;12.00;99.90;;;;;;4992975;28;20050;-68
2023/07/07 02:52:04;;;;;;;19.35;13.10;;;12.00;99.90;;;;;;4921651;28;210821;-69
2023/07/07 02:54:30;;;;;;;19.67;11.45;;;12.00;99.90;;;;;;4982736;28;20050;-69
2023/07/07 02:56:56;;;;;;;22.40;13.20;;;12.00;99.90;;;;;;4910510;28;230966;-69
2023/07/07 02:59:23;;;;;;;21.95;12.40;;;12.00;99.90;;;;;;4992251;28;20058;-70
2023/07/07 03:01:49;;;;;;;18.48;11.57;;;12.00;99.90;;;;;;4940867;28;210995;-70
2023/07/07 03:04:15;;;;;;;20.25;11.68;;;12.00;99.90;;;;;;4981696;28;20514;-69
2023/07/07 03:06:41;;;;;;;19.05;12.18;;;12.00;99.90;;;;;;4984067;28;20058;-69
2023/07/07 03:09:10;;;;;;;19.55;12.43;;;12.00;99.90;;;;;;4972144;28;206838;-70
2023/07/07 03:11:36;;;;;;;18.10;11.35;;;11.90;99.90;;;;;;5005135;28;20054;-70
2023/07/07 03:14:05;;;;;;;21.20;13.45;;;11.90;99.90;;;;;;4954019;28;210284;-69
2023/07/07 03:16:31;;;;;;;19.90;12.00;;;11.90;99.90;;;;;;4981258;28;20050;-71
2023/07/07 03:19:03;;;;;;;19.10;12.25;;;12.00;99.90;;;;;;4978462;28;209315;-69
2023/07/07 03:21:31;;;;;;;21.77;14.05;;;11.90;99.90;;;;;;4983137;28;20455;-70
2023/07/07 03:23:57;;;;;;;18.13;12.50;;;11.90;99.90;;;;;;4941944;28;209973;-69
2023/07/07 03:26:26;;;;;;;19.63;13.32;;;11.90;99.90;;;;;;4987405;28;20053;-70
2023/07/07 03:28:52;;;;;;;21.30;14.60;;;11.90;99.90;;;;;;4921120;28;207914;-69
2023/07/07 03:31:22;;;;;;;25.95;14.18;;;11.90;99.90;;;;;;4981937;28;20059;-69
2023/07/07 03:33:50;;;;;;;23.05;14.68;;;11.80;99.90;;;;;;4913309;28;225056;-70
2023/07/07 03:36:20;;;;;;;22.70;14.30;;;11.80;99.90;;;;;;4978009;28;20056;-68
2023/07/07 03:38:46;;;;;;;24.52;16.17;;;11.80;99.90;;;;;;4945332;28;213933;-70
2023/07/07 03:41:16;;;;;;;21.05;13.68;;;11.90;99.90;;;;;;4984058;28;20055;-70
2023/07/07 03:43:44;;;;;;;23.45;16.25;;;11.90;99.90;;;;;;4942663;28;209861;-70
2023/07/07 03:46:15;;;;;;;21.90;15.45;;;11.90;99.90;;;;;;4984936;28;20054;-68
2023/07/07 03:48:43;;;;;;;24.55;16.08;;;11.90;99.90;;;;;;4938732;28;215135;-68
2023/07/07 03:51:09;;;;;;;27.13;16.98;;;12.00;99.90;;;;;;4983555;28;20061;-70
2023/07/07 03:53:36;;;;;;;24.70;17.02;;;12.00;99.90;;;;;;4927805;28;210625;-70
2023/07/07 03:56:03;;;;;;;25.55;17.10;;;12.00;99.90;;;;;;4981763;28;20057;-70
2023/07/07 03:58:29;;;;;;;22.13;14.82;;;12.10;99.90;;;;;;4942104;28;212979;-70
2023/07/07 04:01:03;;;;;;;25.95;16.02;;;12.10;99.90;;;;;;4989928;28;20058;-70
2023/07/07 04:03:30;;;;;;;23.10;16.33;;;12.10;99.90;;;;;;4959543;28;208638;-69
2023/07/07 04:05:57;;;;;;;24.63;16.70;;;12.20;99.90;;;;;;4985662;28;20431;-68
2023/07/07 04:08:26;;;;;;;30.60;19.30;;;12.20;99.90;;;;;;4912862;28;216749;-68
2023/07/07 04:11:09;;;;;;;26.05;16.20;;;12.30;99.90;;;;;;4977147;28;20084;-69
2023/07/07 04:13:38;;;;;;;24.23;17.98;;;12.40;99.90;;;;;;4940628;28;208242;-68
2023/07/07 04:16:10;;;;;;;27.38;19.10;;;12.50;99.90;;;;;;4982664;28;20598;-68
2023/07/07 04:18:37;;;;;;;24.17;16.48;;;12.60;99.90;;;;;;4939005;28;216613;-69
2023/07/07 04:21:06;;;;;;;28.00;17.15;;;12.70;99.90;;;;;;4986937;28;20054;-69
2023/07/07 04:23:34;;;;;;;24.58;17.77;;;12.80;99.90;;;;;;4908449;28;202013;-69
2023/07/07 04:26:00;;;;;;;25.08;17.60;;;12.90;99.90;;;;;;4986458;28;20460;-70
2023/07/07 04:28:26;;;;;;;25.65;18.05;;;13.00;99.90;;;;;;4952048;28;208931;-69
2023/07/07 04:30:55;;;;;;;26.77;17.25;;;13.10;99.90;;;;;;4987612;28;20057;-68
2023/07/07 04:33:23;;;;;;;27.27;17.50;;;13.30;99.90;;;;;;4941361;28;212771;-69
2023/07/07 04:35:54;;;;;;;24.88;16.30;;;13.40;99.90;;;;;;4994322;28;20057;-69
2023/07/07 04:38:22;;;;;;;26.20;17.20;;;13.50;99.90;;;;;;4935575;28;211247;-69
2023/07/07 04:40:48;;;;;;;28.88;18.33;;;13.60;99.90;;;;;;4977645;28;20061;-71
2023/07/07 04:43:14;;;;;;;24.55;16.65;;;13.70;99.90;;;;;;4952804;28;218731;-71
2023/07/07 04:45:40;;;;;;;25.33;16.05;;;13.80;99.90;;;;;;4993256;28;20050;-69
2023/07/07 04:48:06;;;;;;;23.05;16.08;;;13.80;99.90;;;;;;4936814;28;215230;-69
2023/07/07 04:50:33;;;;;;;25.00;16.02;;;13.90;99.90;;;;;;4981289;28;20050;-68
2023/07/07 04:53:00;;;;;;;22.48;15.75;;;14.00;99.90;;;;;;4943832;28;213096;-69
2023/07/07 04:55:26;;;;;;;24.75;16.77;;;14.10;99.90;;;;;;4983533;28;20054;-69
2023/07/07 04:57:52;;;;;;;23.92;15.88;;;14.20;99.90;;;;;;4946005;28;209168;-69
2023/07/07 05:00:18;;;;;;;23.48;15.57;;;14.30;99.90;;;;;;4998882;28;20081;-69
2023/07/07 05:02:44;;;;;;;21.75;14.95;;;14.40;99.90;;;;;;4941750;28;210800;-69
2023/07/07 05:05:11;;;;;;;24.30;15.60;;;14.40;99.90;;;;;;4991661;28;20056;-68
2023/07/07 05:07:37;;;;;;;21.67;14.60;;;14.50;99.90;;;;;;4935139;28;210898;-69
2023/07/07 05:10:04;;;;;;;26.35;15.27;;;14.60;99.90;;;;;;4993664;28;20049;-69
2023/07/07 05:12:30;;;;;;;24.05;15.05;;;14.70;99.90;;;;;;4936418;28;209795;-69
2023/07/07 05:14:56;;;;;;;20.50;14.23;;;14.70;99.90;;;;;;4986532;28;20515;-69
2023/07/07 05:17:22;;;;;;;22.33;14.52;;;14.90;99.90;;;;;;4929199;28;212398;-69
2023/07/07 05:19:48;;;;;;;20.60;14.10;;;14.90;99.90;;;;;;4987792;28;20508;-69
2023/07/07 05:22:14;;;;;;;20.00;13.82;;;15.10;99.90;;;;;;4928293;28;213806;-69
2023/07/07 05:24:40;;;;;;;22.27;14.20;;;15.20;99.90;;;;;;4994535;28;20069;-69
2023/07/07 05:27:07;;;;;;;19.13;13.15;;;15.30;99.90;;;;;;4934298;28;223238;-69
2023/07/07 05:29:33;;;;;;;25.35;14.10;;;15.40;99.90;;;;;;5007701;28;20054;-69
2023/07/07 05:31:59;;;;;;;23.97;13.80;;;15.50;99.90;;;;;;4929926;28;215817;-70
2023/07/07 05:34:25;;;;;;;20.98;13.15;;;15.60;99.90;;;;;;5009775;28;20050;-69
2023/07/07 05:36:51;;;;;;;18.00;12.68;;;15.70;99.90;;;;;;4949502;28;212953;-69
2023/07/07 05:39:17;;;;;;;20.75;12.65;;;15.80;99.90;;;;;;4950101;28;205701;-70
2023/07/07 05:41:44;;;;;;;20.63;12.05;;;16.00;99.90;;;;;;4978408;28;20799;-68
2023/07/07 05:44:10;;;;;;;18.90;11.95;;;16.10;99.90;;;;;;4948080;28;128101;-68
2023/07/07 05:46:36;;;;;;;18.20;11.50;;;16.20;99.90;;;;;;4979123;28;20424;-69
2023/07/07 05:49:02;;;;;;;18.08;10.90;;;16.40;99.90;;;;;;4902079;28;221496;-69
2023/07/07 05:51:28;;;;;;;19.35;10.48;;;16.60;99.90;;;;;;4979800;28;20511;-68
2023/07/07 05:53:55;;;;;;;19.10;10.75;;;16.80;99.90;;;;;;4947867;28;206102;-69
2023/07/07 05:56:24;;;;;;;19.20;10.00;;;17.00;99.90;;;;;;5002642;28;20443;-69
2023/07/07 05:58:52;;;;;;;16.70;10.18;;;17.20;99.90;;;;;;4923073;28;216313;-69
2023/07/07 06:01:18;;;;;;;16.05;9.60;;;17.40;99.90;;;;;;5004594;28;20046;-69
2023/07/07 06:03:45;;;;;;;20.95;10.10;;;17.60;99.90;;;;;;4946792;28;206955;-68
2023/07/07 06:06:12;;;;;;;15.43;9.55;;;17.90;99.90;;;;;;4998851;28;20065;-68
2023/07/07 06:08:39;;;;;;;17.30;9.38;;;18.00;99.90;;;;;;4957246;28;229253;-70
2023/07/07 06:11:06;;;;;;;18.27;10.20;;;18.10;99.90;;;;;;5005246;28;20931;-69
2023/07/07 06:13:33;;;;;;;19.70;14.35;;;18.40;99.90;;;;;;4931659;28;216364;-70
2023/07/07 06:15:59;;;;;;;23.67;19.50;;;18.50;99.90;;;;;;4998738;28;20053;-70
2023/07/07 06:18:25;;;;;;;19.42;14.88;;;18.60;99.90;;;;;;4960019;28;210790;-70
2023/07/07 06:20:58;;;;;;;16.50;10.13;;;18.80;99.90;;;;;;5005750;28;20081;-70
2023/07/07 06:23:24;;;;;;;17.17;12.38;;;18.90;99.90;;;;;;4934613;28;206050;-70
2023/07/07 06:25:50;;;;;;;18.35;12.65;;;19.00;99.90;;;;;;4996467;28;20050;-69
2023/07/07 06:28:17;;;;;;;15.73;9.00;;;19.20;99.90;;;;;;4949707;28;207615;-68
2023/07/07 06:30:46;;;;;;;17.20;9.60;;;19.40;99.90;;;;;;5001471;28;20060;-70
2023/07/07 06:33:12;;;;;;;16.35;9.27;;;19.50;99.90;;;;;;4950584;28;210894;-69
2023/07/07 06:35:38;;;;;;;20.90;11.90;;;19.70;99.90;;;;;;5000811;28;20058;-69
2023/07/07 06:38:04;;;;;;;17.05;9.73;;;19.90;99.90;;;;;;4960741;28;207543;-71
2023/07/07 06:40:30;;;;;;;17.05;10.13;;;19.90;99.90;;;;;;5007094;28;20049;-70
2023/07/07 06:42:58;;;;;;;17.00;10.48;;;20.10;99.90;;;;;;4946997;28;210743;-69
2023/07/07 06:45:24;;;;;;;16.63;12.13;;;20.20;99.90;;;;;;5001707;28;20046;-70
2023/07/07 06:47:50;;;;;;;19.33;12.68;;;20.50;99.90;;;;;;4954821;28;217992;-70
2023/07/07 06:50:28;;;;;;;18.20;11.05;;;20.80;99.90;;;;;;5009502;28;20605;-70
2023/07/07 06:52:54;;;;;;;21.55;15.23;;;21.00;99.90;;;;;;4950714;28;209213;-72
2023/07/07 06:55:21;;;;;;;16.77;7.55;;;21.20;99.90;;;;;;5008816;28;20046;-70
2023/07/07 06:57:47;;;;;;;16.95;9.55;;;21.30;99.90;;;;;;4945212;28;210910;-70
2023/07/07 07:00:14;;;;;;;17.77;10.55;;;21.30;99.90;;;;;;5009380;28;20050;-70
2023/07/07 07:02:41;;;;;;;14.98;6.97;;;21.60;99.90;;;;;;4953204;28;224970;-70
2023/07/07 07:05:07;;;;;;;16.45;7.78;;;21.80;99.90;;;;;;5008259;28;20058;-69
2023/07/07 07:07:35;;;;;;;20.65;10.35;;;21.80;99.90;;;;;;4950536;28;211359;-71
2023/07/07 07:10:02;;;;;;;13.15;5.85;;;22.00;99.90;;;;;;5006202;28;20054;-69
2023/07/07 07:12:29;;;;;;;46.38;35.85;;;22.10;99.90;;;;;;4950410;28;213613;-71
2023/07/07 07:14:55;;;;;;;12.63;6.57;;;22.30;99.90;;;;;;4999318;28;20061;-70
2023/07/07 07:17:23;;;;;;;15.13;9.13;;;22.60;99.90;;;;;;4948614;28;210310;-70
2023/07/07 07:19:50;;;;;;;13.73;6.88;;;23.10;99.90;;;;;;5004365;28;20054;-70
2023/07/07 07:22:17;;;;;;;12.77;5.22;;;23.40;99.90;;;;;;4949990;28;209753;-71
2023/07/07 07:24:43;;;;;;;13.10;5.85;;;23.80;99.90;;;;;;4987308;28;20062;-70
2023/07/07 07:27:09;;;;;;;12.68;5.40;;;24.10;99.70;;;;;;4950914;28;208012;-70
2023/07/07 07:29:35;;;;;;;11.25;5.45;;;24.10;99.10;;;;;;4995212;28;20074;-70
2023/07/07 07:32:02;;;;;;;11.47;5.30;;;24.20;98.90;;;;;;4930941;28;215580;-70
2023/07/07 07:34:31;;;;;;;12.10;5.20;;;24.20;99.20;;;;;;4980191;28;20058;-70
2023/07/07 07:36:59;;;;;;;11.53;5.10;;;24.30;97.60;;;;;;4938372;28;215211;-70
2023/07/07 07:39:26;;;;;;;14.43;6.35;;;24.30;97.80;;;;;;4994227;28;20491;-71
2023/07/07 07:41:54;;;;;;;11.65;5.20;;;24.40;97.90;;;;;;4951481;28;209931;-67
2023/07/07 07:44:22;;;;;;;11.40;3.90;;;24.50;96.60;;;;;;4989516;28;20062;-70
2023/07/07 07:46:50;;;;;;;19.63;9.23;;;24.60;96.70;;;;;;4970222;28;217398;-71
2023/07/07 07:49:17;;;;;;;14.50;10.00;;;24.70;96.80;;;;;;4976367;28;207948;-71
2023/07/07 07:51:44;;;;;;;13.43;5.78;;;24.60;96.50;;;;;;4983899;28;20058;-72
2023/07/07 07:54:12;;;;;;;13.98;5.22;;;24.80;96.40;;;;;;4959518;28;206719;-70
2023/07/07 07:56:39;;;;;;;14.50;9.20;;;25.10;96.80;;;;;;4983417;28;20062;-71
2023/07/07 07:59:06;;;;;;;13.10;6.13;;;25.40;94.60;;;;;;4944308;28;214108;-71
2023/07/07 08:01:32;;;;;;;13.00;6.13;;;25.40;95.30;;;;;;4986409;28;20050;-70
2023/07/07 08:03:59;;;;;;;10.52;5.15;;;25.70;95.00;;;;;;4963156;28;212720;-70
2023/07/07 08:06:25;;;;;;;17.58;8.02;;;25.90;95.10;;;;;;4989857;28;20057;-71
2023/07/07 08:08:52;;;;;;;13.50;7.28;;;25.80;95.20;;;;;;4971301;28;210388;-70
2023/07/07 08:11:25;;;;;;;12.27;4.90;;;25.90;95.60;;;;;;5004657;28;20057;-70
2023/07/07 08:13:51;;;;;;;10.98;4.88;;;26.40;95.40;;;;;;4945671;28;215099;-70
2023/07/07 08:16:17;;;;;;;12.07;4.05;;;26.60;95.10;;;;;;4988098;28;20072;-71
2023/07/07 08:18:44;;;;;;;10.57;3.70;;;26.90;94.20;;;;;;4941894;28;218245;-73
2023/07/07 08:21:10;;;;;;;66.15;59.53;;;27.10;94.00;;;;;;4996163;28;20397;-71
2023/07/07 08:23:36;;;;;;;12.68;5.72;;;27.20;93.40;;;;;;4947097;28;210877;-71
2023/07/07 08:26:02;;;;;;;10.60;4.53;;;27.50;93.90;;;;;;4989190;28;20060;-70
2023/07/07 08:28:28;;;;;;;10.20;3.65;;;27.90;94.00;;;;;;4935041;28;209375;-71
2023/07/07 08:30:54;;;;;;;10.13;3.65;;;28.10;92.90;;;;;;4988834;28;20061;-70
2023/07/07 08:33:20;;;;;;;9.88;4.05;;;28.10;93.00;;;;;;4944451;28;212446;-72
2023/07/07 08:35:46;;;;;;;10.00;3.80;;;28.20;92.00;;;;;;4985961;28;20065;-69
2023/07/07 08:38:12;;;;;;;9.68;3.67;;;28.00;90.80;;;;;;4918780;28;211020;-69
2023/07/07 08:40:52;;;;;;;12.98;3.30;;;28.10;92.20;;;;;;4977152;28;20499;-69
2023/07/07 08:43:19;;;;;;;9.53;3.07;;;28.60;91.40;;;;;;4927924;28;218997;-70
2023/07/07 08:46:16;;;;;;;9.68;2.88;;;28.90;91.00;;;;;;4981305;28;20081;-69
2023/07/07 08:48:56;;;;;;;8.77;3.00;;;29.00;89.60;;;;;;4911415;28;207075;-70
2023/07/07 08:51:34;;;;;;;10.68;3.50;;;29.10;88.00;;;;;;4979280;28;20659;-71
2023/07/07 08:54:26;;;;;;;7.75;2.53;;;28.70;87.50;;;;;;4955802;28;210700;-69
2023/07/07 08:57:08;;;;;;;8.45;2.42;;;28.50;86.30;;;;;;4944448;28;212337;-70
2023/07/07 08:59:51;;;;;;;8.38;2.15;;;28.30;83.80;;;;;;4964148;28;20055;-69
2023/07/07 09:02:46;;;;;;;8.80;2.35;;;28.40;84.60;;;;;;4936293;28;213434;-70
2023/07/07 09:05:51;;;;;;;7.28;2.30;;;28.60;86.70;;;;;;4983979;28;20061;-69
2023/07/07 09:08:31;;;;;;;10.05;5.40;;;29.10;87.40;;;;;;4934514;28;206394;-70
2023/07/07 09:11:06;;;;;;;104.90;92.32;;;29.50;83.70;;;;;;4984808;28;20058;-70
2023/07/07 09:13:37;;;;;;;378.30;311.75;;;29.80;84.80;;;;;;4941989;28;203952;-70
2023/07/07 09:16:25;;;;;;;32.50;24.10;;;30.10;83.90;;;;;;4985854;28;20050;-69
2023/07/07 09:19:00;;;;;;;9.25;3.13;;;30.50;84.20;;;;;;4935994;28;213090;-71
2023/07/07 09:21:30;;;;;;;13.52;9.10;;;30.90;84.40;;;;;;4979125;28;20061;-71
2023/07/07 09:23:58;;;;;;;11.13;4.90;;;31.30;82.60;;;;;;4934867;28;209363;-70
2023/07/07 09:26:31;;;;;;;8.65;3.72;;;31.20;81.00;;;;;;4978489;28;20058;-70
2023/07/07 09:28:59;;;;;;;11.15;5.78;;;31.20;80.00;;;;;;4969271;28;206781;-70
2023/07/07 09:31:43;;;;;;;9.65;3.53;;;31.30;79.30;;;;;;4993656;28;20038;-69
2023/07/07 09:34:12;;;;;;;11.38;5.72;;;31.10;76.90;;;;;;4961720;28;210682;-70
2023/07/07 09:37:08;;;;;;;13.52;9.10;;;31.20;79.90;;;;;;4986382;28;20061;-70
2023/07/07 09:39:42;;;;;;;9.13;4.38;;;31.50;75.10;;;;;;4936834;28;204638;-70
2023/07/07 09:42:32;;;;;;;9.15;3.92;;;31.30;75.30;;;;;;4935558;28;217124;-70
2023/07/07 09:45:24;;;;;;;8.95;3.30;;;31.40;77.30;;;;;;5002465;28;20077;-70
2023/07/07 09:48:07;;;;;;;8.98;2.70;;;31.50;77.00;;;;;;4921638;28;215972;-71
2023/07/07 09:50:45;;;;;;;8.63;2.95;;;31.60;76.40;;;;;;4980846;28;20061;-70
2023/07/07 09:53:23;;;;;;;9.00;2.92;;;31.60;74.90;;;;;;4949148;28;212824;-70
2023/07/07 09:55:50;;;;;;;8.25;3.17;;;31.90;74.40;;;;;;4989229;28;20054;-70
2023/07/07 09:58:26;;;;;;;7.32;2.00;;;32.50;76.30;;;;;;4920132;28;212334;-71
2023/07/07 10:00:59;;;;;;;10.57;2.30;;;33.00;75.40;;;;;;4989997;28;20058;-70
2023/07/07 10:03:33;;;;;;;9.50;3.38;;;33.30;74.70;;;;;;4926126;28;212529;-70
2023/07/07 10:06:03;;;;;;;8.75;2.55;;;33.70;75.60;;;;;;4989496;28;20510;-71
2023/07/07 10:08:30;;;;;;;10.18;2.40;;;34.10;75.10;;;;;;4942299;28;206271;-69
2023/07/07 10:11:12;;;;;;;8.07;2.40;;;34.30;73.20;;;;;;4985548;28;20062;-69
2023/07/07 10:13:38;;;;;;;8.48;2.58;;;34.20;72.10;;;;;;4944821;28;206609;-70
2023/07/07 10:16:07;;;;;;;8.85;2.10;;;33.60;72.00;;;;;;4984445;28;20050;-69
2023/07/07 10:18:34;;;;;;;6.88;2.00;;;32.90;72.60;;;;;;4955446;28;214116;-70
2023/07/07 10:21:08;;;;;;;8.85;2.00;;;33.00;72.70;;;;;;4992187;28;20066;-69
2023/07/07 10:23:38;;;;;;;8.82;2.38;;;33.50;72.70;;;;;;4928366;28;158933;-70
2023/07/07 10:26:04;;;;;;;;;;;34.10;73.10;;;;;;4992325;28;20057;-71
2023/07/07 10:28:32;;;;;;;7.90;1.90;;;34.50;71.70;;;;;;4945680;28;208768;-70
2023/07/07 10:30:58;;;;;;;9.48;2.30;;;34.80;73.80;;;;;;4987075;28;20054;-70
2023/07/07 10:33:25;;;;;;;7.25;1.95;;;35.20;72.00;;;;;;4925995;28;213672;-69
2023/07/07 10:35:51;;;;;;;8.20;2.25;;;35.30;71.80;;;;;;4984966;28;20054;-70
2023/07/07 10:38:17;;;;;;;8.02;2.20;;;35.20;69.50;;;;;;4941310;28;211584;-70
2023/07/07 10:40:45;;;;;;;8.07;1.98;;;35.20;70.80;;;;;;4984559;28;20046;-71
2023/07/07 10:43:13;;;;;;;8.25;1.98;;;34.90;69.30;;;;;;4955850;28;214927;-70
2023/07/07 10:45:48;;;;;;;7.00;1.90;;;34.60;69.50;;;;;;5006716;28;20083;-70
2023/07/07 10:48:15;;;;;;;7.80;2.17;;;34.30;66.70;;;;;;4937698;28;224370;-71
2023/07/07 10:51:18;;;;;;;9.90;2.13;;;33.80;68.20;;;;;;4989821;28;20507;-71
2023/07/07 10:54:03;;;;;;;7.75;2.22;;;34.00;66.80;;;;;;4926461;28;206784;-71
2023/07/07 10:56:33;;;;;;;7.95;2.20;;;33.30;67.20;;;;;;4977719;28;20493;-71
2023/07/07 10:59:13;;;;;;;8.55;2.08;;;33.30;68.40;;;;;;4922072;28;216083;-71
2023/07/07 11:02:12;;;;;;;9.05;2.00;;;33.40;69.10;;;;;;5015496;28;20081;-72
2023/07/07 11:05:02;;;;;;;8.57;2.33;;;34.00;70.20;;;;;;4915899;28;89429;-71
2023/07/07 11:07:47;;;;;;;7.47;1.90;;;34.60;69.10;;;;;;4935381;28;210481;-70
2023/07/07 11:10:25;;;;;;;6.53;2.10;;;35.00;68.40;;;;;;4998897;28;20046;-71
2023/07/07 11:13:16;;;;;;;6.47;1.85;;;35.30;65.90;;;;;;4933781;28;221668;-69
2023/07/07 11:15:58;;;;;;;8.85;2.17;;;34.70;64.70;;;;;;4993004;28;20061;-71
2023/07/07 11:18:46;;;;;;;7.97;2.10;;;34.40;68.50;;;;;;4922776;28;211878;-71
2023/07/07 11:21:24;;;;;;;7.63;2.20;;;34.90;67.30;;;;;;4986265;28;20523;-72
2023/07/07 11:24:15;;;;;;;7.50;1.93;;;35.40;65.80;;;;;;4903378;28;207590;-71
2023/07/07 11:26:56;;;;;;;7.93;2.20;;;35.50;66.30;;;;;;4982087;28;20069;-70
2023/07/07 11:29:27;;;;;;;7.25;1.90;;;35.20;65.80;;;;;;4939783;28;186007;-72
2023/07/07 11:32:38;;;;;;;8.40;1.90;;;35.10;66.30;;;;;;4960884;28;212118;-70
2023/07/07 11:35:25;;;;;;;7.20;1.88;;;35.20;66.90;;;;;;4907721;28;20191;-71
2023/07/07 11:38:00;;;;;;;7.38;2.05;;;35.50;68.50;;;;;;4944894;28;24085;-70
2023/07/07 11:40:58;;;;;;;7.20;2.05;;;35.80;66.20;;;;;;4964168;28;20054;-69
2023/07/07 11:43:51;;;;;;;7.43;2.20;;;35.90;65.00;;;;;;4923055;28;141175;-71
2023/07/07 11:46:41;;;;;;;8.38;2.03;;;35.90;64.10;;;;;;4952365;28;20062;-70
2023/07/07 11:49:30;;;;;;;7.72;1.98;;;36.00;63.40;;;;;;4936071;28;170980;-71
2023/07/07 11:52:05;;;;;;;7.78;2.30;;;36.00;64.40;;;;;;4949818;28;135187;-72
2023/07/07 11:54:52;;;;;;;8.93;2.00;;;36.10;64.40;;;;;;4900958;28;89891;-73
2023/07/07 11:57:33;;;;;;;8.00;2.00;;;36.30;64.00;;;;;;4892954;28;209328;-72
2023/07/07 12:00:36;;;;;;;6.95;2.03;;;36.30;63.30;;;;;;4975919;28;20516;-72
2023/07/07 12:03:26;;;;;;;7.82;2.10;;;36.30;63.80;;;;;;4923999;28;208395;-70
2023/07/07 12:05:54;;;;;;;7.25;2.00;;;36.00;63.60;;;;;;4970673;28;20397;-70
2023/07/07 12:08:29;;;;;;;8.77;2.47;;;36.30;64.90;;;;;;4924951;28;210369;-70
2023/07/07 12:10:57;;;;;;;9.95;2.15;;;36.90;64.30;;;;;;4981556;28;20317;-72
2023/07/07 12:13:31;;;;;;;12.05;2.30;;;36.70;63.10;;;;;;4943151;28;214412;-70
2023/07/07 12:16:20;;;;;;;7.82;2.10;;;36.30;62.10;;;;;;4985096;28;20061;-71
2023/07/07 12:18:52;;;;;;;8.32;2.20;;;35.20;60.40;;;;;;4948828;28;210152;-72
2023/07/07 12:21:27;;;;;;;7.32;2.20;;;34.80;61.60;;;;;;4985126;28;20547;-70
2023/07/07 12:24:02;;;;;;;7.28;2.00;;;34.70;62.40;;;;;;4931556;28;212255;-72
2023/07/07 12:26:44;;;;;;;6.93;2.03;;;35.10;64.50;;;;;;4984037;28;20726;-70
2023/07/07 12:29:13;;;;;;;8.30;2.00;;;35.50;65.10;;;;;;4966131;28;210407;-70
2023/07/07 12:31:40;;;;;;;8.52;2.10;;;35.40;63.20;;;;;;4984077;28;20127;-72
2023/07/07 12:34:37;;;;;;;10.07;2.20;;;35.20;62.70;;;;;;4960161;28;210579;-70
2023/07/07 12:37:21;;;;;;;7.85;2.05;;;35.00;61.90;;;;;;4941097;28;214448;-71
2023/07/07 12:39:56;;;;;;;10.60;2.50;;;35.30;63.00;;;;;;4984680;28;20058;-70
2023/07/07 12:42:25;;;;;;;8.88;2.30;;;35.40;61.70;;;;;;4933807;28;211105;-71
2023/07/07 12:44:51;;;;;;;7.80;1.93;;;35.50;62.80;;;;;;5003871;28;20058;-71
2023/07/07 12:47:26;;;;;;;9.27;2.13;;;35.60;61.90;;;;;;4929272;28;252832;-71
2023/07/07 12:50:06;;;;;;;8.73;2.03;;;35.70;60.70;;;;;;5027747;28;20054;-73
2023/07/07 12:52:41;;;;;;;6.70;1.80;;;35.50;61.50;;;;;;4956502;28;214776;-71
2023/07/07 12:55:28;;;;;;;7.63;2.30;;;35.60;61.40;;;;;;5007727;28;20531;-69